Knoxville, Iowa
Current Conditions -  °F | °C
As of 2:35 PM on Wednesday 26 Nov 2014 (Local Time) from KOXV Reporting Station
Light Snow Light Snow  
Wind Chill: 21°   Ceiling: 600
Heat Index: 30°   Visibility: 0.5mi
Dew Point: 28°   Wind: 10mph
Humidity: 93%   Direction: 50°NE
Pressure: 30"   Gusts: NA
Location:  41.32°N, 93.1°W
Report Text: KOXV 262035Z AUTO 05009KT 1/2SM -SN BKN006 M01/M02 A3000 RMK AO2
Loading
Personal Weather Stations






























Interactive Weather Map New forecast layout! Learn more

10-Day Weather Forecast

Advertisements
Track Severe Weather on mobile